Time;durP1;ratioP1;P1;durP2;ratioP2;P2;SDS_P1;SDS_P2;PMS_P1;PMS_P2;Temp;Humidity;BMP_temperature;BMP_pressure;BME280_temperature;BME280_humidity;BME280_pressure;Samples;Min_cycle;Max_cycle;Signal;HPM_P1;HPM_P2
2021/09/09 00:01:07;;;;;;;16.20;11.87;;;16.40;99.90;;;;;;5048672;28;20172;-68
2021/09/09 00:03:32;;;;;;;12.30;10.30;;;16.30;99.90;;;;;;5053248;28;20195;-68
2021/09/09 00:05:58;;;;;;;13.80;10.10;;;16.30;99.90;;;;;;5052935;28;20210;-68
2021/09/09 00:08:24;;;;;;;11.83;10.27;;;16.30;99.90;;;;;;5052942;28;20152;-68
2021/09/09 00:10:49;;;;;;;12.00;9.80;;;16.30;99.90;;;;;;5053113;28;20161;-68
2021/09/09 00:13:15;;;;;;;13.77;11.13;;;16.30;99.90;;;;;;5042160;28;20592;-68
2021/09/09 00:15:41;;;;;;;13.00;10.47;;;16.30;99.90;;;;;;5033930;28;20181;-68
2021/09/09 00:18:07;;;;;;;15.70;12.00;;;16.20;99.90;;;;;;5046004;28;20430;-68
2021/09/09 00:20:32;;;;;;;13.30;11.53;;;16.20;99.90;;;;;;5052540;28;20176;-68
2021/09/09 00:22:58;;;;;;;12.00;10.03;;;16.20;99.90;;;;;;5053512;28;20172;-68
2021/09/09 00:25:23;;;;;;;12.70;9.80;;;16.20;99.90;;;;;;5051751;28;20212;-68
2021/09/09 00:27:49;;;;;;;13.23;11.43;;;16.20;99.90;;;;;;5052561;28;20183;-68
2021/09/09 00:30:15;;;;;;;13.47;10.43;;;16.20;99.90;;;;;;5044246;28;20220;-68
2021/09/09 00:32:40;;;;;;;14.90;10.70;;;16.20;99.90;;;;;;5052146;28;20190;-68
2021/09/09 00:35:06;;;;;;;10.80;9.23;;;16.10;99.90;;;;;;5052874;28;20156;-68
2021/09/09 00:37:32;;;;;;;14.10;10.37;;;16.10;99.90;;;;;;5053171;28;20540;-68
2021/09/09 00:39:57;;;;;;;14.70;11.10;;;16.10;99.90;;;;;;5052172;28;20207;-68
2021/09/09 00:42:23;;;;;;;17.43;11.60;;;16.10;99.90;;;;;;5052535;28;20600;-68
2021/09/09 00:44:48;;;;;;;14.57;11.87;;;16.10;99.90;;;;;;5052646;28;20231;-68
2021/09/09 00:47:14;;;;;;;14.63;10.60;;;16.00;99.90;;;;;;5041670;28;20267;-68
2021/09/09 00:49:42;;;;;;;13.43;10.43;;;16.00;99.90;;;;;;5034257;28;20183;-68
2021/09/09 00:52:10;;;;;;;13.87;10.00;;;16.00;99.90;;;;;;5043121;28;20233;-68
2021/09/09 00:54:36;;;;;;;16.53;11.90;;;16.00;99.90;;;;;;5037957;28;20486;-68
2021/09/09 00:57:04;;;;;;;15.27;11.23;;;16.00;99.90;;;;;;5052932;28;20486;-68
2021/09/09 00:59:32;;;;;;;13.20;10.80;;;16.00;99.90;;;;;;5052146;28;20947;-68
2021/09/09 01:01:57;;;;;;;12.83;9.87;;;16.00;99.90;;;;;;5051797;28;20422;-68
2021/09/09 01:04:23;;;;;;;12.50;9.70;;;16.00;99.90;;;;;;5040519;28;20407;-68
2021/09/09 01:06:48;;;;;;;11.80;10.40;;;16.00;99.90;;;;;;5033451;28;20208;-68
2021/09/09 01:09:14;;;;;;;15.50;11.97;;;15.90;99.90;;;;;;5032660;28;20618;-68
2021/09/09 01:11:40;;;;;;;15.77;11.93;;;15.90;99.90;;;;;;5048451;28;20657;-68
2021/09/09 01:14:10;;;;;;;12.57;10.67;;;15.90;99.90;;;;;;5052423;28;20199;-68
2021/09/09 01:16:37;;;;;;;14.60;11.90;;;15.90;99.90;;;;;;5048621;28;20175;-68
2021/09/09 01:19:04;;;;;;;13.10;9.97;;;15.90;99.90;;;;;;5032495;28;20411;-68
2021/09/09 01:21:30;;;;;;;12.67;10.73;;;15.90;99.90;;;;;;5045805;28;20458;-68
2021/09/09 01:23:57;;;;;;;14.07;10.67;;;15.90;99.90;;;;;;5040904;28;20454;-68
2021/09/09 01:26:24;;;;;;;11.67;9.50;;;15.80;99.90;;;;;;5052372;28;20446;-68
2021/09/09 01:28:51;;;;;;;12.33;10.37;;;15.80;99.90;;;;;;5052402;28;20395;-68
2021/09/09 01:31:17;;;;;;;12.10;10.23;;;15.80;99.90;;;;;;5049970;28;20489;-68
2021/09/09 01:33:43;;;;;;;15.60;12.40;;;15.80;99.90;;;;;;5052284;28;20495;-68
2021/09/09 01:36:08;;;;;;;17.60;11.07;;;15.80;99.90;;;;;;5052194;28;20171;-68
2021/09/09 01:38:34;;;;;;;13.63;10.70;;;15.80;99.90;;;;;;5038528;28;20416;-68
2021/09/09 01:40:59;;;;;;;14.30;10.40;;;15.80;99.90;;;;;;5046893;28;20559;-68
2021/09/09 01:43:25;;;;;;;13.00;10.23;;;15.80;99.90;;;;;;5046839;28;20196;-68
2021/09/09 01:45:50;;;;;;;12.07;10.30;;;15.80;99.90;;;;;;5052064;28;20204;-68
2021/09/09 01:48:16;;;;;;;12.60;10.60;;;15.80;99.90;;;;;;5052091;28;20167;-68
2021/09/09 01:50:42;;;;;;;16.53;12.60;;;15.80;99.90;;;;;;5051818;28;20594;-68
2021/09/09 01:53:07;;;;;;;13.40;11.73;;;15.80;99.90;;;;;;5053484;28;20521;-68
2021/09/09 01:55:33;;;;;;;11.73;10.47;;;15.70;99.90;;;;;;5054909;28;20180;-68
2021/09/09 01:57:58;;;;;;;13.97;10.80;;;15.70;99.90;;;;;;5054865;28;20194;-68
2021/09/09 02:00:24;;;;;;;10.80;9.40;;;15.70;99.90;;;;;;5049037;28;20236;-68
2021/09/09 02:02:49;;;;;;;12.70;10.00;;;15.70;99.90;;;;;;5055419;28;20176;-68
2021/09/09 02:05:15;;;;;;;12.73;10.83;;;15.70;99.90;;;;;;5055753;28;20199;-68
2021/09/09 02:07:41;;;;;;;13.50;12.10;;;15.70;99.90;;;;;;5055503;28;20160;-68
2021/09/09 02:10:08;;;;;;;13.93;11.10;;;15.70;99.90;;;;;;5054701;28;20520;-68
2021/09/09 02:12:34;;;;;;;11.27;9.93;;;15.70;99.90;;;;;;5041475;28;20199;-68
2021/09/09 02:15:01;;;;;;;15.30;10.07;;;15.70;99.90;;;;;;5036472;28;20430;-68
2021/09/09 02:17:27;;;;;;;11.87;10.50;;;15.70;99.90;;;;;;5047777;28;20430;-68
2021/09/09 02:19:53;;;;;;;10.57;9.43;;;15.60;99.90;;;;;;5052852;28;20430;-70
2021/09/09 02:22:18;;;;;;;14.97;10.17;;;15.60;99.90;;;;;;5035382;28;20169;-70
2021/09/09 02:24:45;;;;;;;20.60;11.87;;;15.60;99.90;;;;;;5052653;28;20197;-71
2021/09/09 02:27:13;;;;;;;12.23;9.73;;;15.60;99.90;;;;;;5055231;28;20566;-71
2021/09/09 02:29:38;;;;;;;13.03;10.50;;;15.60;99.90;;;;;;5052145;28;20434;-71
2021/09/09 02:32:04;;;;;;;12.10;10.23;;;15.60;99.90;;;;;;5051181;28;20422;-71
2021/09/09 02:34:30;;;;;;;16.83;11.40;;;15.60;99.90;;;;;;5054662;28;20551;-71
2021/09/09 02:36:55;;;;;;;14.63;10.90;;;15.60;99.90;;;;;;5055090;28;20160;-71
2021/09/09 02:39:21;;;;;;;12.97;10.93;;;15.60;99.90;;;;;;5054922;28;20226;-71
2021/09/09 02:41:46;;;;;;;13.50;11.27;;;15.60;99.90;;;;;;5051637;28;20168;-71
2021/09/09 02:44:12;;;;;;;15.77;10.80;;;15.50;99.90;;;;;;5034768;28;20157;-71
2021/09/09 02:46:37;;;;;;;13.97;10.77;;;15.50;99.90;;;;;;5035386;28;20230;-71
2021/09/09 02:49:03;;;;;;;13.53;10.27;;;15.50;99.90;;;;;;5035313;28;20177;-71
2021/09/09 02:51:29;;;;;;;10.53;9.00;;;15.60;99.90;;;;;;5046778;28;20176;-71
2021/09/09 02:53:54;;;;;;;13.90;10.87;;;15.60;99.90;;;;;;5054554;28;20383;-71
2021/09/09 02:56:20;;;;;;;11.00;9.30;;;15.50;99.90;;;;;;5054627;28;20167;-71
2021/09/09 02:58:46;;;;;;;13.00;9.93;;;15.50;99.90;;;;;;5054164;28;20213;-71
2021/09/09 03:01:12;;;;;;;12.07;9.90;;;15.50;99.90;;;;;;5053949;28;20191;-71
2021/09/09 03:03:38;;;;;;;11.73;10.53;;;15.50;99.90;;;;;;5040182;28;20180;-71
2021/09/09 03:06:04;;;;;;;13.50;10.53;;;15.50;99.90;;;;;;5035022;28;20473;-71
2021/09/09 03:08:29;;;;;;;14.97;10.67;;;15.50;99.90;;;;;;5034344;28;20407;-71
2021/09/09 03:10:55;;;;;;;10.80;9.70;;;15.50;99.90;;;;;;5040545;28;20298;-71
2021/09/09 03:13:20;;;;;;;15.83;10.17;;;15.50;99.90;;;;;;5054071;28;20194;-71
2021/09/09 03:15:46;;;;;;;12.43;10.30;;;15.50;99.90;;;;;;5054010;28;20156;-71
2021/09/09 03:18:11;;;;;;;13.60;10.30;;;15.50;99.90;;;;;;5054514;28;20574;-71
2021/09/09 03:20:37;;;;;;;14.73;11.00;;;15.50;99.90;;;;;;5052868;28;20179;-71
2021/09/09 03:23:02;;;;;;;12.97;10.00;;;15.40;99.90;;;;;;5043163;28;20623;-71
2021/09/09 03:25:28;;;;;;;16.63;11.23;;;15.50;99.90;;;;;;5053739;28;20278;-71
2021/09/09 03:27:53;;;;;;;11.90;9.20;;;15.50;99.90;;;;;;5053955;28;20601;-71
2021/09/09 03:30:19;;;;;;;15.40;10.43;;;15.40;99.90;;;;;;5053163;28;20176;-71
2021/09/09 03:32:44;;;;;;;13.67;10.67;;;15.40;99.90;;;;;;5053804;28;20695;-70
2021/09/09 03:35:10;;;;;;;15.23;10.33;;;15.40;99.90;;;;;;5053770;28;20606;-71
2021/09/09 03:37:36;;;;;;;12.50;10.27;;;15.40;99.90;;;;;;5053067;28;20191;-71
2021/09/09 03:40:01;;;;;;;15.83;11.23;;;15.40;99.90;;;;;;5051502;28;20196;-71
2021/09/09 03:42:27;;;;;;;12.30;9.63;;;15.40;99.90;;;;;;5050812;28;20554;-71
2021/09/09 03:44:52;;;;;;;12.30;8.73;;;15.40;99.90;;;;;;5052917;28;20195;-70
2021/09/09 03:47:18;;;;;;;11.30;9.63;;;15.40;99.90;;;;;;5051118;28;20534;-71
2021/09/09 03:49:44;;;;;;;12.90;9.67;;;15.40;99.90;;;;;;5052704;28;20271;-71
2021/09/09 03:52:09;;;;;;;13.23;9.67;;;15.40;99.90;;;;;;5051721;28;20267;-71
2021/09/09 03:54:35;;;;;;;13.50;9.80;;;15.40;99.90;;;;;;5047032;28;20262;-71
2021/09/09 03:57:00;;;;;;;13.40;11.20;;;15.30;99.90;;;;;;5047600;28;20219;-71
2021/09/09 03:59:26;;;;;;;12.90;9.53;;;15.30;99.90;;;;;;5057368;28;20200;-71
2021/09/09 04:01:51;;;;;;;13.20;10.83;;;15.30;99.90;;;;;;5051851;28;20179;-71
2021/09/09 04:04:17;;;;;;;14.60;10.77;;;15.30;99.90;;;;;;5053348;28;20184;-71
2021/09/09 04:06:42;;;;;;;11.90;9.80;;;15.30;99.90;;;;;;5052298;28;20246;-71
2021/09/09 04:09:08;;;;;;;12.47;9.93;;;15.30;99.90;;;;;;5053400;28;20180;-71
2021/09/09 04:11:35;;;;;;;13.27;10.17;;;15.30;99.90;;;;;;5041527;28;20649;-71
2021/09/09 04:14:01;;;;;;;13.50;9.83;;;15.30;99.90;;;;;;5036896;28;20251;-71
2021/09/09 04:16:27;;;;;;;13.07;10.43;;;15.30;99.90;;;;;;5041513;28;20463;-71
2021/09/09 04:18:52;;;;;;;13.60;10.30;;;15.30;99.90;;;;;;5052820;28;20163;-71
2021/09/09 04:21:18;;;;;;;11.33;10.10;;;15.30;99.90;;;;;;5053000;28;20529;-71
2021/09/09 04:23:43;;;;;;;15.27;10.60;;;15.30;99.90;;;;;;5051573;28;20165;-71
2021/09/09 04:26:09;;;;;;;12.90;10.10;;;15.30;99.90;;;;;;5052982;28;20582;-71
2021/09/09 04:28:34;;;;;;;13.80;9.80;;;15.30;99.90;;;;;;5047686;28;20169;-71
2021/09/09 04:31:00;;;;;;;14.40;10.30;;;15.30;99.90;;;;;;5045102;28;20181;-71
2021/09/09 04:33:25;;;;;;;12.37;9.73;;;15.20;99.90;;;;;;5050131;28;20659;-71
2021/09/09 04:35:51;;;;;;;13.40;9.13;;;15.20;99.90;;;;;;5052523;28;20325;-71
2021/09/09 04:38:17;;;;;;;12.87;10.00;;;15.20;99.90;;;;;;5051732;28;20563;-70
2021/09/09 04:40:42;;;;;;;16.30;10.30;;;15.20;99.90;;;;;;5052131;28;20304;-70
2021/09/09 04:43:08;;;;;;;18.00;11.10;;;15.20;99.90;;;;;;5044119;28;20378;-71
2021/09/09 04:45:33;;;;;;;15.40;10.80;;;15.20;99.90;;;;;;5035658;28;20214;-71
2021/09/09 04:48:00;;;;;;;13.13;10.70;;;15.20;99.90;;;;;;5051177;28;20198;-71
2021/09/09 04:50:25;;;;;;;14.30;10.80;;;15.20;99.90;;;;;;5052574;28;20183;-71
2021/09/09 04:52:51;;;;;;;12.97;9.87;;;15.20;99.90;;;;;;5050246;28;20414;-71
2021/09/09 04:55:16;;;;;;;10.97;9.83;;;15.20;99.90;;;;;;5032669;28;20152;-71
2021/09/09 04:57:42;;;;;;;13.00;9.97;;;15.20;99.90;;;;;;5048696;28;20244;-71
2021/09/09 05:00:08;;;;;;;13.00;10.17;;;15.20;99.90;;;;;;5051024;28;20278;-71
2021/09/09 05:02:33;;;;;;;15.20;13.03;;;15.20;99.90;;;;;;5051848;28;20201;-71
2021/09/09 05:04:59;;;;;;;14.93;10.33;;;15.20;99.90;;;;;;5035946;28;20450;-71
2021/09/09 05:07:24;;;;;;;12.50;10.20;;;15.20;99.90;;;;;;5032202;28;20184;-71
2021/09/09 05:09:50;;;;;;;12.80;9.63;;;15.20;99.90;;;;;;5051122;28;20175;-71
2021/09/09 05:12:16;;;;;;;14.57;9.87;;;15.20;99.90;;;;;;5051145;28;20321;-71
2021/09/09 05:14:41;;;;;;;13.07;10.37;;;15.20;99.90;;;;;;5048687;28;20316;-71
2021/09/09 05:17:07;;;;;;;13.57;9.77;;;15.20;99.90;;;;;;5051019;28;20270;-71
2021/09/09 05:19:32;;;;;;;15.07;10.47;;;15.20;99.90;;;;;;5051423;28;20298;-71
2021/09/09 05:21:58;;;;;;;11.17;9.60;;;15.20;99.90;;;;;;5050330;28;20183;-72
2021/09/09 05:24:23;;;;;;;11.60;9.20;;;15.20;99.90;;;;;;5048835;28;20178;-71
2021/09/09 05:26:49;;;;;;;17.20;12.10;;;15.20;99.90;;;;;;5044184;28;20203;-71
2021/09/09 05:29:14;;;;;;;13.50;9.60;;;15.20;99.90;;;;;;5047233;28;20645;-71
2021/09/09 05:31:40;;;;;;;16.27;12.33;;;15.20;99.90;;;;;;5055636;28;20188;-71
2021/09/09 05:34:05;;;;;;;20.90;10.90;;;15.20;99.90;;;;;;5050209;28;20203;-71
2021/09/09 05:36:31;;;;;;;15.47;11.60;;;15.30;99.90;;;;;;5055540;28;20187;-71
2021/09/09 05:38:56;;;;;;;12.63;11.07;;;15.30;99.90;;;;;;5052268;28;20187;-71
2021/09/09 05:41:22;;;;;;;15.20;11.87;;;15.30;99.90;;;;;;5052118;28;20218;-71
2021/09/09 05:43:47;;;;;;;17.03;12.80;;;15.30;99.90;;;;;;5055047;28;20255;-71
2021/09/09 05:46:13;;;;;;;14.57;10.17;;;15.40;99.90;;;;;;5052636;28;20695;-71
2021/09/09 05:48:38;;;;;;;15.10;10.33;;;15.40;99.90;;;;;;5049218;28;20629;-71
2021/09/09 05:51:05;;;;;;;15.30;11.20;;;15.50;99.90;;;;;;5054715;28;20188;-71
2021/09/09 05:53:31;;;;;;;13.93;10.70;;;15.50;99.90;;;;;;5048583;28;20172;-71
2021/09/09 05:55:56;;;;;;;11.50;10.30;;;15.50;99.90;;;;;;5046903;28;20508;-71
2021/09/09 05:58:22;;;;;;;13.33;11.47;;;15.60;99.90;;;;;;5053374;28;20191;-71
2021/09/09 06:00:48;;;;;;;10.43;9.13;;;15.60;99.90;;;;;;5052127;28;20556;-71
2021/09/09 06:03:14;;;;;;;12.87;11.23;;;15.70;99.90;;;;;;5052838;28;20207;-71
2021/09/09 06:05:39;;;;;;;14.23;9.70;;;15.70;99.90;;;;;;5044074;28;20219;-71
2021/09/09 06:08:06;;;;;;;13.53;10.53;;;15.70;99.90;;;;;;5044034;28;20260;-71
2021/09/09 06:10:31;;;;;;;16.43;12.33;;;15.80;99.90;;;;;;5036191;28;20177;-71
2021/09/09 06:12:57;;;;;;;13.70;10.27;;;15.80;99.90;;;;;;5039768;28;20562;-71
2021/09/09 06:15:22;;;;;;;13.57;10.00;;;15.90;99.90;;;;;;5035543;28;20169;-71
2021/09/09 06:17:48;;;;;;;13.67;10.97;;;16.00;99.90;;;;;;5047918;28;20333;-71
2021/09/09 06:20:14;;;;;;;16.03;11.27;;;16.00;99.90;;;;;;5055338;28;20156;-71
2021/09/09 06:22:40;;;;;;;13.87;11.13;;;16.10;99.90;;;;;;5045580;28;20212;-71
2021/09/09 06:25:06;;;;;;;12.77;10.90;;;16.10;99.90;;;;;;5048752;28;20486;-71
2021/09/09 06:27:31;;;;;;;15.67;10.20;;;16.20;99.90;;;;;;5054401;28;20180;-71
2021/09/09 06:29:57;;;;;;;15.07;11.23;;;16.20;99.90;;;;;;5038847;28;20202;-71
2021/09/09 06:32:24;;;;;;;13.40;9.87;;;16.30;99.90;;;;;;5052196;28;20222;-71
2021/09/09 06:34:50;;;;;;;13.70;10.27;;;16.30;99.90;;;;;;5054992;28;20176;-71
2021/09/09 06:37:15;;;;;;;15.70;12.03;;;16.40;99.90;;;;;;5048903;28;20473;-70
2021/09/09 06:39:41;;;;;;;14.50;11.20;;;16.40;99.90;;;;;;5033572;28;20230;-70
2021/09/09 06:42:06;;;;;;;14.47;10.90;;;16.50;99.90;;;;;;5050730;28;20258;-70
2021/09/09 06:44:32;;;;;;;12.87;10.70;;;16.60;99.90;;;;;;5051364;28;20596;-71
2021/09/09 06:46:58;;;;;;;16.23;10.67;;;16.60;99.90;;;;;;5052366;28;20540;-71
2021/09/09 06:49:23;;;;;;;14.33;11.27;;;16.70;99.90;;;;;;5054033;28;20180;-71
2021/09/09 06:51:49;;;;;;;13.37;10.50;;;16.70;99.90;;;;;;5052613;28;20225;-71
2021/09/09 06:54:16;;;;;;;14.60;11.37;;;16.80;99.90;;;;;;5049541;28;20188;-71
2021/09/09 06:56:42;;;;;;;13.57;10.83;;;16.90;99.90;;;;;;5049340;28;20184;-72
2021/09/09 06:59:07;;;;;;;15.57;11.10;;;16.90;99.90;;;;;;5053277;28;20454;-72
2021/09/09 07:01:33;;;;;;;12.00;10.80;;;17.00;99.90;;;;;;5042144;28;20180;-71
2021/09/09 07:03:58;;;;;;;12.53;9.90;;;17.10;99.90;;;;;;5042942;28;20200;-71
2021/09/09 07:06:24;;;;;;;17.70;10.53;;;17.20;99.90;;;;;;5042323;28;20280;-71
2021/09/09 07:08:49;;;;;;;12.10;9.13;;;17.20;99.90;;;;;;5051292;28;20191;-71
2021/09/09 07:11:15;;;;;;;9.90;8.70;;;17.30;99.90;;;;;;5047981;28;20263;-71
2021/09/09 07:13:40;;;;;;;9.90;8.33;;;17.40;99.90;;;;;;5053730;28;20534;-71
2021/09/09 07:16:06;;;;;;;11.80;7.93;;;17.40;99.90;;;;;;5052206;28;20176;-71
2021/09/09 07:18:33;;;;;;;15.30;8.50;;;17.50;99.90;;;;;;5048214;28;20199;-71
2021/09/09 07:20:59;;;;;;;14.73;9.23;;;17.60;99.90;;;;;;5036007;28;20177;-71
2021/09/09 07:23:24;;;;;;;10.00;8.33;;;17.70;99.90;;;;;;5049157;28;20441;-71
2021/09/09 07:25:50;;;;;;;9.83;7.97;;;17.80;99.90;;;;;;5052492;28;20302;-71
2021/09/09 07:28:16;;;;;;;10.83;7.77;;;17.80;99.90;;;;;;5049191;28;20188;-71
2021/09/09 07:30:42;;;;;;;10.23;7.03;;;17.90;99.90;;;;;;5043350;28;20211;-72
2021/09/09 07:33:08;;;;;;;11.57;7.70;;;18.10;99.90;;;;;;5052084;28;20974;-72
2021/09/09 07:35:33;;;;;;;8.10;7.17;;;18.10;99.90;;;;;;5051372;28;20281;-72
2021/09/09 07:37:59;;;;;;;10.20;8.10;;;18.20;99.90;;;;;;5042935;28;20216;-72
2021/09/09 07:40:25;;;;;;;8.77;6.93;;;18.30;99.90;;;;;;5047368;28;20198;-72
2021/09/09 07:42:51;;;;;;;9.77;8.27;;;18.30;99.90;;;;;;5043123;28;20800;-72
2021/09/09 07:45:17;;;;;;;9.17;7.53;;;18.40;99.90;;;;;;5050572;28;20469;-72
2021/09/09 07:47:42;;;;;;;9.30;7.00;;;18.50;99.90;;;;;;5053435;28;20235;-72
2021/09/09 07:50:09;;;;;;;11.17;7.40;;;18.50;99.90;;;;;;5050785;28;20313;-71
2021/09/09 07:52:36;;;;;;;7.80;6.87;;;18.60;99.90;;;;;;5051088;28;20207;-72
2021/09/09 07:55:02;;;;;;;7.57;6.77;;;18.60;99.90;;;;;;5052748;28;20459;-72
2021/09/09 07:57:27;;;;;;;9.97;8.10;;;18.70;99.90;;;;;;5052437;28;20411;-71
2021/09/09 07:59:53;;;;;;;7.87;7.07;;;18.70;99.90;;;;;;5042528;28;20447;-72
2021/09/09 08:02:19;;;;;;;10.00;6.57;;;18.80;99.90;;;;;;5041652;28;20239;-72
2021/09/09 08:04:44;;;;;;;9.40;7.70;;;18.90;99.90;;;;;;5052602;28;20173;-72
2021/09/09 08:07:10;;;;;;;8.43;7.00;;;18.90;99.90;;;;;;5037646;28;20179;-72
2021/09/09 08:09:35;;;;;;;10.27;7.47;;;19.00;99.90;;;;;;5035155;28;20601;-72
2021/09/09 08:12:02;;;;;;;10.43;7.40;;;19.00;99.90;;;;;;5048263;28;20194;-72
2021/09/09 08:14:28;;;;;;;12.93;7.60;;;19.10;99.90;;;;;;5052052;28;20234;-72
2021/09/09 08:16:54;;;;;;;8.80;7.90;;;19.20;99.90;;;;;;5050485;28;20433;-72
2021/09/09 08:19:20;;;;;;;8.07;7.13;;;19.30;99.90;;;;;;5051016;28;20892;-72
2021/09/09 08:21:45;;;;;;;10.00;7.40;;;19.40;99.90;;;;;;5049335;28;20259;-72
2021/09/09 08:24:11;;;;;;;8.97;7.27;;;19.50;99.90;;;;;;5033520;28;20617;-72
2021/09/09 08:26:36;;;;;;;7.80;6.70;;;19.60;99.90;;;;;;5046123;28;20202;-72
2021/09/09 08:29:03;;;;;;;8.40;7.00;;;19.60;99.90;;;;;;5048478;28;20178;-72
2021/09/09 08:31:28;;;;;;;9.27;6.53;;;19.70;99.90;;;;;;5046124;28;20176;-72
2021/09/09 08:33:55;;;;;;;8.77;6.37;;;19.80;99.90;;;;;;5050470;28;20786;-72
2021/09/09 08:36:21;;;;;;;10.80;5.70;;;19.90;99.90;;;;;;5043417;28;20212;-72
2021/09/09 08:38:48;;;;;;;7.53;6.70;;;20.00;99.90;;;;;;5037403;28;20881;-72
2021/09/09 08:41:14;;;;;;;8.30;7.00;;;20.10;99.90;;;;;;5044597;28;20434;-72
2021/09/09 08:43:39;;;;;;;7.80;6.37;;;20.20;99.90;;;;;;5036907;28;20434;-72
2021/09/09 08:46:05;;;;;;;7.20;5.47;;;20.20;99.90;;;;;;5036145;28;20667;-72
2021/09/09 08:48:31;;;;;;;7.47;6.67;;;20.40;99.90;;;;;;5036654;28;20621;-72
2021/09/09 08:51:00;;;;;;;8.43;6.00;;;20.40;99.90;;;;;;5040949;28;20221;-72
2021/09/09 08:53:26;;;;;;;7.67;6.60;;;20.50;99.90;;;;;;5051718;28;20429;-70
2021/09/09 08:55:52;;;;;;;8.70;5.43;;;20.70;99.90;;;;;;5035830;28;20840;-71
2021/09/09 08:58:19;;;;;;;6.00;5.20;;;20.70;99.90;;;;;;5032203;28;20514;-72
2021/09/09 09:01:13;;;;;;;8.10;6.30;;;21.00;99.90;;;;;;5047200;28;20245;-72
2021/09/09 09:03:47;;;;;;;6.73;6.03;;;21.10;99.90;;;;;;5053871;28;20437;-72
2021/09/09 09:06:30;;;;;;;10.93;8.10;;;21.20;99.90;;;;;;5054714;28;20526;-72
2021/09/09 09:11:36;;;;;;;8.10;7.30;;;21.30;99.90;;;;;;5056626;28;20553;-72
2021/09/09 09:14:02;;;;;;;8.50;6.70;;;21.50;99.90;;;;;;5044154;28;20426;-72
2021/09/09 09:16:29;;;;;;;7.27;6.00;;;21.60;99.90;;;;;;5045637;28;20749;-72
2021/09/09 09:18:59;;;;;;;9.93;5.77;;;21.70;99.90;;;;;;5046680;28;20415;-72
2021/09/09 09:21:27;;;;;;;7.27;6.10;;;22.00;99.90;;;;;;5042977;28;20503;-72
2021/09/09 09:23:56;;;;;;;7.10;6.20;;;22.40;99.90;;;;;;5028469;28;20487;-72
2021/09/09 09:26:21;;;;;;;5.87;5.03;;;23.00;99.90;;;;;;5028100;28;20408;-72
2021/09/09 09:28:49;;;;;;;7.60;5.47;;;23.50;99.90;;;;;;5028399;28;20776;-72
2021/09/09 09:36:35;;;;;;;6.20;4.80;;;24.80;99.90;;;;;;5093517;27;20532;-72
2021/09/09 09:39:11;;;;;;;6.50;5.17;;;25.00;99.90;;;;;;5069420;28;20413;-72
2021/09/09 09:41:39;;;;;;;6.40;5.20;;;25.10;99.90;;;;;;5069196;28;20439;-72
2021/09/09 09:44:07;;;;;;;6.10;4.30;;;25.10;99.90;;;;;;5069927;28;20390;-72
2021/09/09 09:46:39;;;;;;;8.20;4.73;;;25.00;99.90;;;;;;5069942;28;20401;-72
2021/09/09 09:49:27;;;;;;;6.30;4.50;;;24.80;99.90;;;;;;5069052;28;20426;-72
2021/09/09 09:51:55;;;;;;;5.27;4.77;;;24.50;99.90;;;;;;5036350;28;20415;-72
2021/09/09 09:54:24;;;;;;;6.07;4.87;;;24.40;99.90;;;;;;5060407;28;20771;-72
2021/09/09 09:56:50;;;;;;;5.47;4.50;;;24.20;99.90;;;;;;5069248;28;20440;-72
2021/09/09 09:59:17;;;;;;;9.50;4.77;;;24.10;99.90;;;;;;5068034;28;20449;-72
2021/09/09 10:01:43;;;;;;;5.63;4.17;;;24.00;99.90;;;;;;5067518;28;20410;-72
2021/09/09 10:04:12;;;;;;;6.60;5.00;;;23.90;99.90;;;;;;5065565;28;20413;-72
2021/09/09 10:06:37;;;;;;;5.23;4.40;;;23.80;99.90;;;;;;5069359;28;20493;-72
2021/09/09 10:09:05;;;;;;;6.20;4.50;;;23.70;99.90;;;;;;5051900;28;20569;-72
2021/09/09 10:11:31;;;;;;;8.00;5.50;;;23.60;99.90;;;;;;5049580;28;20176;-72
2021/09/09 10:13:59;;;;;;;6.93;6.33;;;23.60;99.90;;;;;;5049222;28;20387;-72
2021/09/09 10:16:27;;;;;;;7.03;5.70;;;23.50;99.90;;;;;;5048986;28;20439;-72
2021/09/09 10:18:54;;;;;;;6.30;5.40;;;23.50;99.90;;;;;;5058404;28;20457;-72
2021/09/09 10:24:20;;;;;;;7.83;5.57;;;23.30;99.90;;;;;;5066850;28;20520;-72
2021/09/09 10:26:48;;;;;;;6.60;5.80;;;23.30;99.90;;;;;;5049253;28;20417;-72
2021/09/09 10:29:50;;;;;;;7.57;6.00;;;23.20;99.90;;;;;;5049314;28;20399;-72
2021/09/09 10:40:59;;;;;;;6.40;4.70;;;23.00;99.90;;;;;;5068901;28;20554;-71
2021/09/09 10:46:03;;;;;;;6.23;5.37;;;23.00;99.90;;;;;;5110406;27;20521;-72
2021/09/09 10:48:30;;;;;;;7.33;6.50;;;22.90;99.90;;;;;;5098279;28;20500;-73
2021/09/09 10:51:02;;;;;;;6.33;5.73;;;22.90;99.90;;;;;;5090064;28;20412;-72
2021/09/09 10:53:37;;;;;;;6.50;5.67;;;22.90;99.90;;;;;;5102616;28;20396;-73
2021/09/09 10:56:31;;;;;;;6.40;5.10;;;22.90;99.90;;;;;;5108996;28;20415;-73
2021/09/09 10:59:19;;;;;;;6.40;5.80;;;22.90;99.90;;;;;;5099246;28;20452;-73
2021/09/09 11:01:46;;;;;;;6.70;5.07;;;22.90;99.90;;;;;;5086920;28;20421;-73
2021/09/09 11:04:34;;;;;;;7.00;5.50;;;22.90;99.90;;;;;;5089543;28;20978;-73
2021/09/09 11:07:00;;;;;;;5.87;4.97;;;22.90;99.90;;;;;;5088286;28;20435;-73
2021/09/09 11:09:29;;;;;;;6.03;5.50;;;22.90;99.90;;;;;;5089580;28;20385;-73
2021/09/09 11:14:34;;;;;;;6.33;5.70;;;22.80;99.90;;;;;;5060860;28;20543;-72
2021/09/09 11:17:00;;;;;;;5.80;4.90;;;22.80;99.90;;;;;;5050482;28;20422;-72
2021/09/09 11:19:26;;;;;;;6.20;4.50;;;22.80;99.90;;;;;;5049903;28;20238;-72
2021/09/09 11:21:53;;;;;;;6.73;5.47;;;22.80;99.90;;;;;;5049737;28;20555;-72
2021/09/09 11:24:20;;;;;;;7.77;5.70;;;22.80;99.90;;;;;;5050103;28;20379;-72
2021/09/09 11:26:48;;;;;;;7.50;4.97;;;22.80;99.90;;;;;;5050057;28;20426;-72
2021/09/09 11:29:16;;;;;;;9.03;6.60;;;22.80;99.90;;;;;;5049169;28;20438;-72
2021/09/09 11:31:51;;;;;;;7.13;6.17;;;22.80;99.90;;;;;;5034128;28;20496;-72
2021/09/09 11:34:25;;;;;;;9.50;6.87;;;22.80;99.90;;;;;;5037295;28;21053;-72
2021/09/09 11:36:53;;;;;;;5.43;4.90;;;22.80;99.90;;;;;;5044128;28;20426;-72
2021/09/09 11:39:21;;;;;;;5.13;4.37;;;22.90;99.90;;;;;;5047231;28;20600;-72
2021/09/09 11:41:47;;;;;;;5.07;4.57;;;23.00;99.90;;;;;;5047765;28;20394;-72
2021/09/09 11:44:32;;;;;;;7.77;6.37;;;23.10;99.90;;;;;;5048796;28;20812;-72
2021/09/09 11:46:59;;;;;;;6.73;5.50;;;23.30;99.90;;;;;;5049443;28;20434;-72
2021/09/09 11:49:26;;;;;;;7.13;5.80;;;23.50;99.90;;;;;;5049470;28;20423;-72
2021/09/09 11:51:54;;;;;;;7.00;6.30;;;23.60;99.90;;;;;;5048998;28;20938;-72
2021/09/09 11:59:58;;;;;;;5.27;4.77;;;23.90;99.90;;;;;;5052697;28;20663;-72
2021/09/09 12:05:07;;;;;;;5.47;4.87;;;24.20;99.90;;;;;;5056511;28;20536;-72
2021/09/09 12:07:33;;;;;;;7.60;5.43;;;24.10;99.90;;;;;;5044604;28;20429;-72
2021/09/09 12:10:06;;;;;;;2.83;2.63;;;24.00;99.90;;;;;;5042995;28;20936;-72
2021/09/09 12:12:34;;;;;;;6.60;5.50;;;24.00;99.90;;;;;;5038623;28;20157;-72
2021/09/09 12:15:08;;;;;;;7.07;5.63;;;24.00;99.90;;;;;;5044492;28;20418;-72
2021/09/09 12:17:33;;;;;;;8.30;5.87;;;24.00;99.90;;;;;;5049349;28;20423;-72
2021/09/09 12:20:23;;;;;;;5.10;4.60;;;23.90;99.90;;;;;;5049268;28;20425;-72
2021/09/09 12:22:53;;;;;;;5.87;5.27;;;24.00;99.90;;;;;;5048672;28;20184;-72
2021/09/09 12:33:27;;;;;;;7.43;6.73;;;24.00;99.90;;;;;;5069925;28;20537;-73
2021/09/09 12:44:16;;;;;;;6.23;5.60;;;24.20;99.90;;;;;;5054985;28;20636;-72
2021/09/09 12:46:50;;;;;;;6.00;5.43;;;24.10;99.90;;;;;;5047952;28;20900;-72
2021/09/09 12:54:38;;;;;;;5.30;4.80;;;23.90;99.90;;;;;;5090739;27;20647;-72
2021/09/09 12:57:03;;;;;;;8.17;6.67;;;23.80;99.90;;;;;;5088383;28;20437;-72
2021/09/09 12:59:31;;;;;;;5.90;5.30;;;23.80;99.90;;;;;;5071154;28;20480;-72
2021/09/09 13:01:56;;;;;;;5.67;5.10;;;23.80;99.90;;;;;;5073889;28;20163;-73
2021/09/09 13:04:22;;;;;;;8.23;4.97;;;23.80;99.90;;;;;;5078376;28;20423;-73
2021/09/09 13:06:47;;;;;;;6.07;4.50;;;23.80;99.90;;;;;;5089484;28;20155;-72
2021/09/09 13:09:14;;;;;;;4.70;4.30;;;23.90;99.90;;;;;;5085753;28;20542;-72
2021/09/09 13:11:39;;;;;;;5.10;4.60;;;24.10;99.90;;;;;;5088574;28;20159;-72
2021/09/09 13:14:05;;;;;;;6.47;5.87;;;24.10;99.90;;;;;;5086720;28;20927;-72
2021/09/09 13:16:31;;;;;;;7.70;6.13;;;24.10;99.90;;;;;;5077573;28;20562;-72
2021/09/09 13:18:56;;;;;;;7.53;6.80;;;24.10;99.90;;;;;;5079833;28;20441;-72
2021/09/09 13:21:28;;;;;;;5.13;4.63;;;24.00;99.90;;;;;;5086966;28;20189;-72
2021/09/09 13:23:54;;;;;;;8.00;6.40;;;23.90;99.90;;;;;;5090033;28;20167;-72
2021/09/09 13:26:20;;;;;;;4.73;4.23;;;23.90;99.90;;;;;;5075002;28;20421;-72
2021/09/09 13:28:46;;;;;;;7.23;5.63;;;23.80;99.90;;;;;;5069463;28;20944;-72